sensor_id;sensor_type;location;lat;lon;timestamp;temperature;humidity
11700;DHT22;5906;51.660;6.674;2023-01-05T00:01:31;11.70;99.90
11700;DHT22;5906;51.660;6.674;2023-01-05T00:03:58;11.80;99.90
11700;DHT22;5906;51.660;6.674;2023-01-05T00:06:25;11.70;99.90
11700;DHT22;5906;51.660;6.674;2023-01-05T00:08:52;11.70;99.90
11700;DHT22;5906;51.660;6.674;2023-01-05T00:11:21;11.60;99.90
11700;DHT22;5906;51.660;6.674;2023-01-05T00:14:28;11.60;99.90
11700;DHT22;5906;51.660;6.674;2023-01-05T00:17:18;11.60;99.90
11700;DHT22;5906;51.660;6.674;2023-01-05T00:20:09;11.50;99.90
11700;DHT22;5906;51.660;6.674;2023-01-05T00:22:55;11.50;99.90
11700;DHT22;5906;51.660;6.674;2023-01-05T00:25:28;11.40;99.90
11700;DHT22;5906;51.660;6.674;2023-01-05T00:27:55;11.40;99.90
11700;DHT22;5906;51.660;6.674;2023-01-05T00:30:39;11.30;99.90
11700;DHT22;5906;51.660;6.674;2023-01-05T00:33:11;11.30;99.90
11700;DHT22;5906;51.660;6.674;2023-01-05T00:35:38;11.30;99.90
11700;DHT22;5906;51.660;6.674;2023-01-05T00:38:06;11.30;99.90
11700;DHT22;5906;51.660;6.674;2023-01-05T00:40:34;11.30;99.90
11700;DHT22;5906;51.660;6.674;2023-01-05T00:43:02;11.20;99.90
11700;DHT22;5906;51.660;6.674;2023-01-05T00:45:28;11.20;99.90
11700;DHT22;5906;51.660;6.674;2023-01-05T00:47:55;11.20;99.90
11700;DHT22;5906;51.660;6.674;2023-01-05T00:50:23;11.20;99.90
11700;DHT22;5906;51.660;6.674;2023-01-05T00:52:50;11.20;99.90
11700;DHT22;5906;51.660;6.674;2023-01-05T00:55:17;11.20;99.90
11700;DHT22;5906;51.660;6.674;2023-01-05T00:57:44;11.30;99.90
11700;DHT22;5906;51.660;6.674;2023-01-05T01:00:15;11.30;99.90
11700;DHT22;5906;51.660;6.674;2023-01-05T01:02:43;11.30;99.90
11700;DHT22;5906;51.660;6.674;2023-01-05T01:05:11;11.30;99.90
11700;DHT22;5906;51.660;6.674;2023-01-05T01:07:38;11.30;99.90
11700;DHT22;5906;51.660;6.674;2023-01-05T01:10:06;11.30;99.90
11700;DHT22;5906;51.660;6.674;2023-01-05T01:12:33;11.30;99.90
11700;DHT22;5906;51.660;6.674;2023-01-05T01:15:01;11.30;99.90
11700;DHT22;5906;51.660;6.674;2023-01-05T01:17:29;11.30;99.90
11700;DHT22;5906;51.660;6.674;2023-01-05T01:19:56;11.30;99.90
11700;DHT22;5906;51.660;6.674;2023-01-05T01:22:23;11.20;99.90
11700;DHT22;5906;51.660;6.674;2023-01-05T01:24:51;11.30;99.90
11700;DHT22;5906;51.660;6.674;2023-01-05T01:27:19;11.30;99.90
11700;DHT22;5906;51.660;6.674;2023-01-05T01:29:46;11.30;99.90
11700;DHT22;5906;51.660;6.674;2023-01-05T01:32:14;11.30;99.90
11700;DHT22;5906;51.660;6.674;2023-01-05T01:34:41;11.30;99.90
11700;DHT22;5906;51.660;6.674;2023-01-05T01:37:07;11.20;99.90
11700;DHT22;5906;51.660;6.674;2023-01-05T01:39:34;11.20;99.90
11700;DHT22;5906;51.660;6.674;2023-01-05T01:42:02;11.30;99.90
11700;DHT22;5906;51.660;6.674;2023-01-05T01:47:19;11.20;99.90
11700;DHT22;5906;51.660;6.674;2023-01-05T01:49:48;11.20;99.90
11700;DHT22;5906;51.660;6.674;2023-01-05T01:52:16;11.20;99.90
11700;DHT22;5906;51.660;6.674;2023-01-05T01:54:45;11.20;99.90
11700;DHT22;5906;51.660;6.674;2023-01-05T01:57:12;11.20;99.90
11700;DHT22;5906;51.660;6.674;2023-01-05T01:59:41;11.20;99.90
11700;DHT22;5906;51.660;6.674;2023-01-05T02:02:10;11.20;99.90
11700;DHT22;5906;51.660;6.674;2023-01-05T02:04:38;11.20;99.90
11700;DHT22;5906;51.660;6.674;2023-01-05T02:07:08;11.20;99.90
11700;DHT22;5906;51.660;6.674;2023-01-05T02:09:36;11.30;99.90
11700;DHT22;5906;51.660;6.674;2023-01-05T02:18:33;11.30;99.90
11700;DHT22;5906;51.660;6.674;2023-01-05T02:32:15;11.20;99.90
11700;DHT22;5906;51.660;6.674;2023-01-05T02:38:04;11.20;99.90
11700;DHT22;5906;51.660;6.674;2023-01-05T02:40:38;11.20;99.90
11700;DHT22;5906;51.660;6.674;2023-01-05T02:43:08;11.10;99.90
11700;DHT22;5906;51.660;6.674;2023-01-05T02:45:35;11.20;99.90
11700;DHT22;5906;51.660;6.674;2023-01-05T02:48:02;11.20;99.90
11700;DHT22;5906;51.660;6.674;2023-01-05T02:50:53;11.20;99.90
11700;DHT22;5906;51.660;6.674;2023-01-05T02:53:30;11.20;99.90
11700;DHT22;5906;51.660;6.674;2023-01-05T02:56:15;11.20;99.90
11700;DHT22;5906;51.660;6.674;2023-01-05T02:58:55;11.20;99.90
11700;DHT22;5906;51.660;6.674;2023-01-05T03:01:32;11.20;99.90
11700;DHT22;5906;51.660;6.674;2023-01-05T03:04:05;11.20;99.90
11700;DHT22;5906;51.660;6.674;2023-01-05T03:06:35;11.20;99.90
11700;DHT22;5906;51.660;6.674;2023-01-05T03:09:05;11.20;99.90
11700;DHT22;5906;51.660;6.674;2023-01-05T03:11:48;11.20;99.90
11700;DHT22;5906;51.660;6.674;2023-01-05T03:15:15;11.10;99.90
11700;DHT22;5906;51.660;6.674;2023-01-05T03:17:45;11.10;99.90
11700;DHT22;5906;51.660;6.674;2023-01-05T03:20:16;11.00;99.90
11700;DHT22;5906;51.660;6.674;2023-01-05T03:22:45;11.00;99.90
11700;DHT22;5906;51.660;6.674;2023-01-05T03:25:33;11.00;99.90
11700;DHT22;5906;51.660;6.674;2023-01-05T03:28:23;11.00;99.90
11700;DHT22;5906;51.660;6.674;2023-01-05T03:31:29;10.90;99.90
11700;DHT22;5906;51.660;6.674;2023-01-05T03:34:57;10.90;99.90
11700;DHT22;5906;51.660;6.674;2023-01-05T03:37:50;10.70;99.90
11700;DHT22;5906;51.660;6.674;2023-01-05T03:40:28;10.70;99.90
11700;DHT22;5906;51.660;6.674;2023-01-05T03:42:57;10.70;99.90
11700;DHT22;5906;51.660;6.674;2023-01-05T03:45:31;10.70;99.90
11700;DHT22;5906;51.660;6.674;2023-01-05T03:47:59;10.80;99.90
11700;DHT22;5906;51.660;6.674;2023-01-05T03:50:26;10.70;99.90
11700;DHT22;5906;51.660;6.674;2023-01-05T03:52:54;10.70;99.90
11700;DHT22;5906;51.660;6.674;2023-01-05T03:55:21;10.70;99.90
11700;DHT22;5906;51.660;6.674;2023-01-05T03:57:48;10.60;99.90
11700;DHT22;5906;51.660;6.674;2023-01-05T04:00:15;10.60;99.90
11700;DHT22;5906;51.660;6.674;2023-01-05T04:02:42;10.60;99.90
11700;DHT22;5906;51.660;6.674;2023-01-05T04:05:10;10.60;99.90
11700;DHT22;5906;51.660;6.674;2023-01-05T04:07:37;10.60;99.90
11700;DHT22;5906;51.660;6.674;2023-01-05T04:10:05;10.60;99.90
11700;DHT22;5906;51.660;6.674;2023-01-05T04:12:31;10.70;99.90
11700;DHT22;5906;51.660;6.674;2023-01-05T04:14:59;10.60;99.90
11700;DHT22;5906;51.660;6.674;2023-01-05T04:17:26;10.60;99.90
11700;DHT22;5906;51.660;6.674;2023-01-05T04:19:53;10.70;99.90
11700;DHT22;5906;51.660;6.674;2023-01-05T04:22:20;10.60;99.90
11700;DHT22;5906;51.660;6.674;2023-01-05T04:24:53;10.70;99.90
11700;DHT22;5906;51.660;6.674;2023-01-05T04:27:20;10.70;99.90
11700;DHT22;5906;51.660;6.674;2023-01-05T04:29:46;10.70;99.90
11700;DHT22;5906;51.660;6.674;2023-01-05T04:32:14;10.70;99.90
11700;DHT22;5906;51.660;6.674;2023-01-05T04:34:41;10.70;99.90
11700;DHT22;5906;51.660;6.674;2023-01-05T04:37:07;10.70;99.90
11700;DHT22;5906;51.660;6.674;2023-01-05T04:39:35;10.70;99.90
11700;DHT22;5906;51.660;6.674;2023-01-05T04:42:02;10.70;99.90
11700;DHT22;5906;51.660;6.674;2023-01-05T04:44:29;10.70;99.90
11700;DHT22;5906;51.660;6.674;2023-01-05T04:46:56;10.70;99.90
11700;DHT22;5906;51.660;6.674;2023-01-05T04:49:23;10.70;99.90
11700;DHT22;5906;51.660;6.674;2023-01-05T04:51:49;10.70;99.90
11700;DHT22;5906;51.660;6.674;2023-01-05T04:54:17;10.70;99.90
11700;DHT22;5906;51.660;6.674;2023-01-05T04:56:44;10.70;99.90
11700;DHT22;5906;51.660;6.674;2023-01-05T04:59:11;10.70;99.90
11700;DHT22;5906;51.660;6.674;2023-01-05T05:01:38;10.80;99.90
11700;DHT22;5906;51.660;6.674;2023-01-05T05:04:05;10.70;99.90
11700;DHT22;5906;51.660;6.674;2023-01-05T05:06:32;10.70;99.90
11700;DHT22;5906;51.660;6.674;2023-01-05T05:08:59;10.70;99.90
11700;DHT22;5906;51.660;6.674;2023-01-05T05:11:26;10.70;99.90
11700;DHT22;5906;51.660;6.674;2023-01-05T05:13:53;10.70;99.90
11700;DHT22;5906;51.660;6.674;2023-01-05T05:16:20;10.70;99.90
11700;DHT22;5906;51.660;6.674;2023-01-05T05:18:46;10.60;99.90
11700;DHT22;5906;51.660;6.674;2023-01-05T05:21:14;10.70;99.90
11700;DHT22;5906;51.660;6.674;2023-01-05T05:23:40;10.70;99.90
11700;DHT22;5906;51.660;6.674;2023-01-05T05:26:08;10.60;99.90
11700;DHT22;5906;51.660;6.674;2023-01-05T05:28:35;10.60;99.90
11700;DHT22;5906;51.660;6.674;2023-01-05T05:31:02;10.60;99.90
11700;DHT22;5906;51.660;6.674;2023-01-05T05:33:29;10.60;99.90
11700;DHT22;5906;51.660;6.674;2023-01-05T05:35:55;10.60;99.90
11700;DHT22;5906;51.660;6.674;2023-01-05T05:38:23;10.70;99.90
11700;DHT22;5906;51.660;6.674;2023-01-05T05:40:50;10.60;99.90
11700;DHT22;5906;51.660;6.674;2023-01-05T05:43:17;10.70;99.90
11700;DHT22;5906;51.660;6.674;2023-01-05T05:45:44;10.70;99.90
11700;DHT22;5906;51.660;6.674;2023-01-05T05:48:17;10.60;99.90
11700;DHT22;5906;51.660;6.674;2023-01-05T05:50:44;10.60;99.90
11700;DHT22;5906;51.660;6.674;2023-01-05T05:53:12;10.60;99.90
11700;DHT22;5906;51.660;6.674;2023-01-05T05:55:39;10.60;99.90
11700;DHT22;5906;51.660;6.674;2023-01-05T05:58:06;10.60;99.90
11700;DHT22;5906;51.660;6.674;2023-01-05T06:00:33;10.70;99.90
11700;DHT22;5906;51.660;6.674;2023-01-05T06:03:00;10.60;99.90
11700;DHT22;5906;51.660;6.674;2023-01-05T06:05:27;10.60;99.90
11700;DHT22;5906;51.660;6.674;2023-01-05T06:07:54;10.60;99.90
11700;DHT22;5906;51.660;6.674;2023-01-05T06:10:21;10.60;99.90
11700;DHT22;5906;51.660;6.674;2023-01-05T06:12:48;10.60;99.90
11700;DHT22;5906;51.660;6.674;2023-01-05T06:15:15;10.60;99.90
11700;DHT22;5906;51.660;6.674;2023-01-05T06:17:44;10.70;99.90
11700;DHT22;5906;51.660;6.674;2023-01-05T06:20:11;10.60;99.90
11700;DHT22;5906;51.660;6.674;2023-01-05T06:22:38;10.60;99.90
11700;DHT22;5906;51.660;6.674;2023-01-05T06:25:06;10.70;99.90
11700;DHT22;5906;51.660;6.674;2023-01-05T06:27:33;10.70;99.90
11700;DHT22;5906;51.660;6.674;2023-01-05T06:30:00;10.70;99.90
11700;DHT22;5906;51.660;6.674;2023-01-05T06:32:28;10.70;99.90
11700;DHT22;5906;51.660;6.674;2023-01-05T06:34:55;10.70;99.90
11700;DHT22;5906;51.660;6.674;2023-01-05T06:37:22;10.70;99.90
11700;DHT22;5906;51.660;6.674;2023-01-05T06:39:49;10.70;99.90
11700;DHT22;5906;51.660;6.674;2023-01-05T06:42:16;10.70;99.90
11700;DHT22;5906;51.660;6.674;2023-01-05T06:44:49;10.70;99.90
11700;DHT22;5906;51.660;6.674;2023-01-05T06:47:16;10.70;99.90
11700;DHT22;5906;51.660;6.674;2023-01-05T06:49:43;10.70;99.90
11700;DHT22;5906;51.660;6.674;2023-01-05T06:52:10;10.70;99.90
11700;DHT22;5906;51.660;6.674;2023-01-05T06:54:42;10.70;99.90
11700;DHT22;5906;51.660;6.674;2023-01-05T06:57:09;10.80;99.90
11700;DHT22;5906;51.660;6.674;2023-01-05T06:59:37;10.70;99.90
11700;DHT22;5906;51.660;6.674;2023-01-05T07:02:04;10.70;99.90
11700;DHT22;5906;51.660;6.674;2023-01-05T07:04:31;10.60;99.90
11700;DHT22;5906;51.660;6.674;2023-01-05T07:06:58;10.70;99.90
11700;DHT22;5906;51.660;6.674;2023-01-05T07:09:25;10.70;99.90
11700;DHT22;5906;51.660;6.674;2023-01-05T07:11:52;10.70;99.90
11700;DHT22;5906;51.660;6.674;2023-01-05T07:14:19;10.70;99.90
11700;DHT22;5906;51.660;6.674;2023-01-05T07:16:46;10.70;99.90
11700;DHT22;5906;51.660;6.674;2023-01-05T07:19:13;10.70;99.90
11700;DHT22;5906;51.660;6.674;2023-01-05T07:21:40;10.70;99.90
11700;DHT22;5906;51.660;6.674;2023-01-05T07:24:07;10.60;99.90
11700;DHT22;5906;51.660;6.674;2023-01-05T07:26:35;10.60;99.90
11700;DHT22;5906;51.660;6.674;2023-01-05T07:29:02;10.60;99.90
11700;DHT22;5906;51.660;6.674;2023-01-05T07:31:29;10.60;99.90
11700;DHT22;5906;51.660;6.674;2023-01-05T07:33:56;10.60;99.90
11700;DHT22;5906;51.660;6.674;2023-01-05T07:36:23;10.60;99.90
11700;DHT22;5906;51.660;6.674;2023-01-05T07:38:52;10.60;99.90
11700;DHT22;5906;51.660;6.674;2023-01-05T07:41:19;10.60;99.90
11700;DHT22;5906;51.660;6.674;2023-01-05T07:43:49;10.60;99.90
11700;DHT22;5906;51.660;6.674;2023-01-05T07:46:16;10.60;99.90
11700;DHT22;5906;51.660;6.674;2023-01-05T07:48:44;10.60;99.90
11700;DHT22;5906;51.660;6.674;2023-01-05T07:51:12;10.60;99.90
11700;DHT22;5906;51.660;6.674;2023-01-05T07:53:39;10.60;99.90
11700;DHT22;5906;51.660;6.674;2023-01-05T07:56:11;10.60;99.90
11700;DHT22;5906;51.660;6.674;2023-01-05T07:58:38;10.60;99.90
11700;DHT22;5906;51.660;6.674;2023-01-05T08:01:08;10.60;99.90
11700;DHT22;5906;51.660;6.674;2023-01-05T08:03:36;10.60;99.90
11700;DHT22;5906;51.660;6.674;2023-01-05T08:06:09;10.70;99.90
11700;DHT22;5906;51.660;6.674;2023-01-05T08:08:36;10.70;99.90
11700;DHT22;5906;51.660;6.674;2023-01-05T08:11:05;10.70;99.90
11700;DHT22;5906;51.660;6.674;2023-01-05T08:13:33;10.70;99.90
11700;DHT22;5906;51.660;6.674;2023-01-05T08:16:19;10.70;99.90
11700;DHT22;5906;51.660;6.674;2023-01-05T08:18:46;10.70;99.90
11700;DHT22;5906;51.660;6.674;2023-01-05T08:21:13;10.70;99.90
11700;DHT22;5906;51.660;6.674;2023-01-05T08:23:40;10.70;99.90
11700;DHT22;5906;51.660;6.674;2023-01-05T08:26:14;10.80;99.90
11700;DHT22;5906;51.660;6.674;2023-01-05T08:28:42;10.80;99.90
11700;DHT22;5906;51.660;6.674;2023-01-05T08:31:24;10.80;99.90
11700;DHT22;5906;51.660;6.674;2023-01-05T08:33:58;10.80;99.90
11700;DHT22;5906;51.660;6.674;2023-01-05T08:36:27;10.80;99.90
11700;DHT22;5906;51.660;6.674;2023-01-05T08:38:54;10.80;99.90
11700;DHT22;5906;51.660;6.674;2023-01-05T08:41:26;10.80;99.90
11700;DHT22;5906;51.660;6.674;2023-01-05T08:43:58;10.80;99.90
11700;DHT22;5906;51.660;6.674;2023-01-05T08:46:27;10.90;99.90
11700;DHT22;5906;51.660;6.674;2023-01-05T08:48:57;10.90;99.90
11700;DHT22;5906;51.660;6.674;2023-01-05T08:51:24;10.90;99.90
11700;DHT22;5906;51.660;6.674;2023-01-05T08:53:52;11.00;99.90
11700;DHT22;5906;51.660;6.674;2023-01-05T08:56:20;11.00;99.90
11700;DHT22;5906;51.660;6.674;2023-01-05T08:58:47;10.90;99.90
11700;DHT22;5906;51.660;6.674;2023-01-05T09:01:16;11.00;99.90
11700;DHT22;5906;51.660;6.674;2023-01-05T09:03:44;11.00;99.90
11700;DHT22;5906;51.660;6.674;2023-01-05T09:06:12;11.00;99.90
11700;DHT22;5906;51.660;6.674;2023-01-05T09:08:40;11.10;99.90
11700;DHT22;5906;51.660;6.674;2023-01-05T09:13:40;11.10;99.90
11700;DHT22;5906;51.660;6.674;2023-01-05T09:16:10;11.00;99.90
11700;DHT22;5906;51.660;6.674;2023-01-05T09:18:39;11.00;99.90
11700;DHT22;5906;51.660;6.674;2023-01-05T09:21:07;11.00;99.90
11700;DHT22;5906;51.660;6.674;2023-01-05T09:23:35;11.10;99.90
11700;DHT22;5906;51.660;6.674;2023-01-05T09:26:07;11.10;99.90
11700;DHT22;5906;51.660;6.674;2023-01-05T09:28:34;11.10;99.90
11700;DHT22;5906;51.660;6.674;2023-01-05T09:31:17;11.10;99.90
11700;DHT22;5906;51.660;6.674;2023-01-05T09:33:45;11.10;99.90
11700;DHT22;5906;51.660;6.674;2023-01-05T09:36:14;11.10;99.90
11700;DHT22;5906;51.660;6.674;2023-01-05T09:38:42;11.20;99.90
11700;DHT22;5906;51.660;6.674;2023-01-05T09:41:51;11.20;99.90
11700;DHT22;5906;51.660;6.674;2023-01-05T09:44:27;11.20;99.90
11700;DHT22;5906;51.660;6.674;2023-01-05T09:49:30;11.30;99.90
11700;DHT22;5906;51.660;6.674;2023-01-05T09:52:00;11.30;99.90
11700;DHT22;5906;51.660;6.674;2023-01-05T09:54:30;11.30;99.90
11700;DHT22;5906;51.660;6.674;2023-01-05T09:56:59;11.40;99.90
11700;DHT22;5906;51.660;6.674;2023-01-05T09:59:38;11.40;99.90
11700;DHT22;5906;51.660;6.674;2023-01-05T10:02:19;11.40;99.90
11700;DHT22;5906;51.660;6.674;2023-01-05T10:04:47;11.40;99.90
11700;DHT22;5906;51.660;6.674;2023-01-05T10:09:53;11.60;99.90
11700;DHT22;5906;51.660;6.674;2023-01-05T10:12:25;11.60;99.90
11700;DHT22;5906;51.660;6.674;2023-01-05T10:15:19;11.60;99.90
11700;DHT22;5906;51.660;6.674;2023-01-05T10:17:47;11.60;99.90
11700;DHT22;5906;51.660;6.674;2023-01-05T10:33:53;11.80;99.90
11700;DHT22;5906;51.660;6.674;2023-01-05T10:45:29;11.80;99.90
11700;DHT22;5906;51.660;6.674;2023-01-05T10:47:57;11.80;99.90
11700;DHT22;5906;51.660;6.674;2023-01-05T10:53:16;11.80;99.90
11700;DHT22;5906;51.660;6.674;2023-01-05T10:58:29;11.90;99.90
11700;DHT22;5906;51.660;6.674;2023-01-05T11:03:38;12.00;99.90
11700;DHT22;5906;51.660;6.674;2023-01-05T11:06:31;12.00;99.90
11700;DHT22;5906;51.660;6.674;2023-01-05T11:09:21;12.10;99.90
11700;DHT22;5906;51.660;6.674;2023-01-05T11:12:02;12.00;99.90
11700;DHT22;5906;51.660;6.674;2023-01-05T11:14:39;12.10;99.90
11700;DHT22;5906;51.660;6.674;2023-01-05T11:17:15;12.00;99.90
11700;DHT22;5906;51.660;6.674;2023-01-05T11:19:45;12.10;99.90
11700;DHT22;5906;51.660;6.674;2023-01-05T11:22:38;12.10;99.90
11700;DHT22;5906;51.660;6.674;2023-01-05T11:30:35;12.10;99.90
11700;DHT22;5906;51.660;6.674;2023-01-05T11:33:24;12.10;99.90
11700;DHT22;5906;51.660;6.674;2023-01-05T11:35:52;12.10;99.90
11700;DHT22;5906;51.660;6.674;2023-01-05T11:38:22;12.10;99.90
11700;DHT22;5906;51.660;6.674;2023-01-05T11:40:51;12.20;99.90
11700;DHT22;5906;51.660;6.674;2023-01-05T11:43:19;12.30;99.90
11700;DHT22;5906;51.660;6.674;2023-01-05T11:45:59;12.30;99.90
11700;DHT22;5906;51.660;6.674;2023-01-05T11:48:31;12.20;99.90
11700;DHT22;5906;51.660;6.674;2023-01-05T11:51:00;12.30;99.90
11700;DHT22;5906;51.660;6.674;2023-01-05T11:56:19;12.30;99.90
11700;DHT22;5906;51.660;6.674;2023-01-05T11:58:55;12.30;99.90
11700;DHT22;5906;51.660;6.674;2023-01-05T12:07:03;12.20;99.90
11700;DHT22;5906;51.660;6.674;2023-01-05T12:09:37;12.20;99.90
11700;DHT22;5906;51.660;6.674;2023-01-05T12:23:16;12.50;99.90
11700;DHT22;5906;51.660;6.674;2023-01-05T12:25:55;12.40;99.90
11700;DHT22;5906;51.660;6.674;2023-01-05T12:49:02;12.40;99.90
11700;DHT22;5906;51.660;6.674;2023-01-05T12:51:46;12.40;99.90
11700;DHT22;5906;51.660;6.674;2023-01-05T12:57:00;12.50;99.90
11700;DHT22;5906;51.660;6.674;2023-01-05T13:13:18;13.20;99.90
11700;DHT22;5906;51.660;6.674;2023-01-05T13:18:46;13.20;99.90
11700;DHT22;5906;51.660;6.674;2023-01-05T13:21:15;13.10;99.90
11700;DHT22;5906;51.660;6.674;2023-01-05T13:23:54;13.10;99.90
11700;DHT22;5906;51.660;6.674;2023-01-05T13:26:22;13.00;99.90
11700;DHT22;5906;51.660;6.674;2023-01-05T13:28:53;13.00;99.90
11700;DHT22;5906;51.660;6.674;2023-01-05T13:53:16;12.90;99.90
11700;DHT22;5906;51.660;6.674;2023-01-05T13:58:48;12.80;99.90
11700;DHT22;5906;51.660;6.674;2023-01-05T14:01:36;12.70;99.90
11700;DHT22;5906;51.660;6.674;2023-01-05T14:04:13;12.70;99.90
11700;DHT22;5906;51.660;6.674;2023-01-05T14:06:43;12.70;99.90
11700;DHT22;5906;51.660;6.674;2023-01-05T14:26:07;12.60;99.90
11700;DHT22;5906;51.660;6.674;2023-01-05T14:39:27;12.30;99.90
11700;DHT22;5906;51.660;6.674;2023-01-05T14:42:05;12.30;99.90
11700;DHT22;5906;51.660;6.674;2023-01-05T14:44:39;12.30;99.90
11700;DHT22;5906;51.660;6.674;2023-01-05T14:47:09;12.20;99.90
11700;DHT22;5906;51.660;6.674;2023-01-05T14:49:43;12.20;99.90
11700;DHT22;5906;51.660;6.674;2023-01-05T14:52:51;12.10;99.90
11700;DHT22;5906;51.660;6.674;2023-01-05T14:55:18;12.10;99.90
11700;DHT22;5906;51.660;6.674;2023-01-05T14:58:04;12.10;99.90
11700;DHT22;5906;51.660;6.674;2023-01-05T15:00:59;12.00;99.90
11700;DHT22;5906;51.660;6.674;2023-01-05T15:03:35;11.90;99.90
11700;DHT22;5906;51.660;6.674;2023-01-05T15:17:34;11.80;99.90
11700;DHT22;5906;51.660;6.674;2023-01-05T15:28:42;11.70;99.90
11700;DHT22;5906;51.660;6.674;2023-01-05T15:31:35;11.60;99.90
11700;DHT22;5906;51.660;6.674;2023-01-05T15:37:07;11.50;99.90
11700;DHT22;5906;51.660;6.674;2023-01-05T15:39:53;11.60;99.90
11700;DHT22;5906;51.660;6.674;2023-01-05T15:42:48;11.50;99.90
11700;DHT22;5906;51.660;6.674;2023-01-05T15:47:51;11.40;99.90
11700;DHT22;5906;51.660;6.674;2023-01-05T15:50:37;11.50;99.90
11700;DHT22;5906;51.660;6.674;2023-01-05T15:53:04;11.50;99.90
11700;DHT22;5906;51.660;6.674;2023-01-05T15:55:31;11.40;99.90
11700;DHT22;5906;51.660;6.674;2023-01-05T15:58:03;11.40;99.90
11700;DHT22;5906;51.660;6.674;2023-01-05T16:00:34;11.40;99.90
11700;DHT22;5906;51.660;6.674;2023-01-05T16:05:47;11.20;99.90
11700;DHT22;5906;51.660;6.674;2023-01-05T16:08:15;11.10;99.90
11700;DHT22;5906;51.660;6.674;2023-01-05T16:10:49;11.10;99.90
11700;DHT22;5906;51.660;6.674;2023-01-05T16:13:31;11.00;99.90
11700;DHT22;5906;51.660;6.674;2023-01-05T16:16:02;11.00;99.90
11700;DHT22;5906;51.660;6.674;2023-01-05T16:18:38;11.00;99.90
11700;DHT22;5906;51.660;6.674;2023-01-05T16:23:44;10.80;99.90
11700;DHT22;5906;51.660;6.674;2023-01-05T16:26:16;10.80;99.90
11700;DHT22;5906;51.660;6.674;2023-01-05T16:28:44;10.80;99.90
11700;DHT22;5906;51.660;6.674;2023-01-05T16:31:55;10.70;99.90
11700;DHT22;5906;51.660;6.674;2023-01-05T16:34:18;10.70;99.90
11700;DHT22;5906;51.660;6.674;2023-01-05T16:39:43;10.60;99.90
11700;DHT22;5906;51.660;6.674;2023-01-05T16:45:01;10.60;99.90
11700;DHT22;5906;51.660;6.674;2023-01-05T16:47:36;10.60;99.90
11700;DHT22;5906;51.660;6.674;2023-01-05T16:52:58;10.70;99.90
11700;DHT22;5906;51.660;6.674;2023-01-05T16:55:34;10.70;99.90
11700;DHT22;5906;51.660;6.674;2023-01-05T16:58:03;10.60;99.90
11700;DHT22;5906;51.660;6.674;2023-01-05T17:00:33;10.70;99.90
11700;DHT22;5906;51.660;6.674;2023-01-05T17:03:02;10.70;99.90
11700;DHT22;5906;51.660;6.674;2023-01-05T17:05:31;10.70;99.90
11700;DHT22;5906;51.660;6.674;2023-01-05T17:08:19;10.70;99.90
11700;DHT22;5906;51.660;6.674;2023-01-05T17:10:47;10.60;99.90
11700;DHT22;5906;51.660;6.674;2023-01-05T17:13:21;10.60;99.90
11700;DHT22;5906;51.660;6.674;2023-01-05T17:15:50;10.50;99.90
11700;DHT22;5906;51.660;6.674;2023-01-05T17:18:26;10.60;99.90
11700;DHT22;5906;51.660;6.674;2023-01-05T17:20:55;10.50;99.90
11700;DHT22;5906;51.660;6.674;2023-01-05T17:26:02;10.60;99.90
11700;DHT22;5906;51.660;6.674;2023-01-05T17:28:30;10.50;99.90
11700;DHT22;5906;51.660;6.674;2023-01-05T17:30:57;10.60;99.90
11700;DHT22;5906;51.660;6.674;2023-01-05T17:33:24;10.60;99.90
11700;DHT22;5906;51.660;6.674;2023-01-05T17:35:51;10.60;99.90
11700;DHT22;5906;51.660;6.674;2023-01-05T17:38:18;10.60;99.90
11700;DHT22;5906;51.660;6.674;2023-01-05T17:40:45;10.60;99.90
11700;DHT22;5906;51.660;6.674;2023-01-05T17:43:12;10.60;99.90
11700;DHT22;5906;51.660;6.674;2023-01-05T17:45:41;10.60;99.90
11700;DHT22;5906;51.660;6.674;2023-01-05T17:48:09;10.60;99.90
11700;DHT22;5906;51.660;6.674;2023-01-05T17:50:37;10.60;99.90
11700;DHT22;5906;51.660;6.674;2023-01-05T17:53:05;10.50;99.90
11700;DHT22;5906;51.660;6.674;2023-01-05T17:55:32;10.50;99.90
11700;DHT22;5906;51.660;6.674;2023-01-05T17:57:59;10.60;99.90
11700;DHT22;5906;51.660;6.674;2023-01-05T18:00:29;10.60;99.90
11700;DHT22;5906;51.660;6.674;2023-01-05T18:02:56;10.50;99.90
11700;DHT22;5906;51.660;6.674;2023-01-05T18:05:23;10.50;99.90
11700;DHT22;5906;51.660;6.674;2023-01-05T18:07:50;10.50;99.90
11700;DHT22;5906;51.660;6.674;2023-01-05T18:10:22;10.50;99.90
11700;DHT22;5906;51.660;6.674;2023-01-05T18:12:53;10.40;99.90
11700;DHT22;5906;51.660;6.674;2023-01-05T18:15:20;10.50;99.90
11700;DHT22;5906;51.660;6.674;2023-01-05T18:17:47;10.50;99.90
11700;DHT22;5906;51.660;6.674;2023-01-05T18:20:15;10.50;99.90
11700;DHT22;5906;51.660;6.674;2023-01-05T18:22:47;10.50;99.90
11700;DHT22;5906;51.660;6.674;2023-01-05T18:25:15;10.50;99.90
11700;DHT22;5906;51.660;6.674;2023-01-05T18:27:42;10.50;99.90
11700;DHT22;5906;51.660;6.674;2023-01-05T18:30:10;10.50;99.90
11700;DHT22;5906;51.660;6.674;2023-01-05T18:32:38;10.60;99.90
11700;DHT22;5906;51.660;6.674;2023-01-05T18:35:05;10.50;99.90
11700;DHT22;5906;51.660;6.674;2023-01-05T18:37:37;10.50;99.90
11700;DHT22;5906;51.660;6.674;2023-01-05T18:40:04;10.50;99.90
11700;DHT22;5906;51.660;6.674;2023-01-05T18:42:32;10.50;99.90
11700;DHT22;5906;51.660;6.674;2023-01-05T18:44:59;10.60;99.90
11700;DHT22;5906;51.660;6.674;2023-01-05T18:47:45;10.50;99.90
11700;DHT22;5906;51.660;6.674;2023-01-05T18:50:12;10.50;99.90
11700;DHT22;5906;51.660;6.674;2023-01-05T18:52:39;10.50;99.90
11700;DHT22;5906;51.660;6.674;2023-01-05T18:55:06;10.50;99.90
11700;DHT22;5906;51.660;6.674;2023-01-05T18:57:34;10.50;99.90
11700;DHT22;5906;51.660;6.674;2023-01-05T19:00:01;10.50;99.90
11700;DHT22;5906;51.660;6.674;2023-01-05T19:02:29;10.50;99.90
11700;DHT22;5906;51.660;6.674;2023-01-05T19:04:56;10.50;99.90
11700;DHT22;5906;51.660;6.674;2023-01-05T19:07:22;10.50;99.90
11700;DHT22;5906;51.660;6.674;2023-01-05T19:09:50;10.40;99.90
11700;DHT22;5906;51.660;6.674;2023-01-05T19:12:18;10.50;99.90
11700;DHT22;5906;51.660;6.674;2023-01-05T19:14:44;10.50;99.90
11700;DHT22;5906;51.660;6.674;2023-01-05T19:17:11;10.40;99.90
11700;DHT22;5906;51.660;6.674;2023-01-05T19:19:39;10.50;99.90
11700;DHT22;5906;51.660;6.674;2023-01-05T19:22:06;10.50;99.90
11700;DHT22;5906;51.660;6.674;2023-01-05T19:24:33;10.50;99.90
11700;DHT22;5906;51.660;6.674;2023-01-05T19:27:01;10.50;99.90
11700;DHT22;5906;51.660;6.674;2023-01-05T19:29:28;10.50;99.90
11700;DHT22;5906;51.660;6.674;2023-01-05T19:31:55;10.50;99.90
11700;DHT22;5906;51.660;6.674;2023-01-05T19:34:21;10.50;99.90
11700;DHT22;5906;51.660;6.674;2023-01-05T19:36:48;10.60;99.90
11700;DHT22;5906;51.660;6.674;2023-01-05T19:39:17;10.60;99.90
11700;DHT22;5906;51.660;6.674;2023-01-05T19:41:46;10.60;99.90
11700;DHT22;5906;51.660;6.674;2023-01-05T19:44:18;10.60;99.90
11700;DHT22;5906;51.660;6.674;2023-01-05T19:46:46;10.60;99.90
11700;DHT22;5906;51.660;6.674;2023-01-05T19:49:21;10.70;99.90
11700;DHT22;5906;51.660;6.674;2023-01-05T19:51:49;10.70;99.90